Time;durP1;ratioP1;P1;durP2;ratioP2;P2;SDS_P1;SDS_P2;PMS_P1;PMS_P2;Temp;Humidity;BMP_temperature;BMP_pressure;BME280_temperature;BME280_humidity;BME280_pressure;Samples;Min_cycle;Max_cycle;Signal;HPM_P1;HPM_P2
2021/07/18 00:00:36;;;;;;;10.80;5.13;;;18.80;99.90;;;;;;5029794;28;20208;-72
2021/07/18 00:03:02;;;;;;;10.93;5.10;;;18.70;99.90;;;;;;5029286;28;20183;-72
2021/07/18 00:05:28;;;;;;;13.00;5.10;;;18.70;99.90;;;;;;5029547;28;20227;-72
2021/07/18 00:07:54;;;;;;;10.17;4.83;;;18.70;99.90;;;;;;5029785;28;20184;-72
2021/07/18 00:10:20;;;;;;;11.63;5.17;;;18.70;99.90;;;;;;5028331;28;20747;-72
2021/07/18 00:12:46;;;;;;;12.23;5.33;;;18.60;99.90;;;;;;5031480;28;20396;-72
2021/07/18 00:15:13;;;;;;;11.17;5.20;;;18.60;99.90;;;;;;5028894;28;20198;-73
2021/07/18 00:17:39;;;;;;;11.23;5.20;;;18.50;99.90;;;;;;5030781;28;20212;-72
2021/07/18 00:20:14;;;;;;;11.37;4.97;;;18.50;99.90;;;;;;5026010;28;20274;-72
2021/07/18 00:22:41;;;;;;;12.33;4.77;;;18.40;99.90;;;;;;5031313;28;20254;-72
2021/07/18 00:25:08;;;;;;;10.07;4.77;;;18.30;99.90;;;;;;5027227;28;20240;-72
2021/07/18 00:27:34;;;;;;;11.17;4.60;;;18.30;99.90;;;;;;5020827;28;20267;-72
2021/07/18 00:30:00;;;;;;;13.03;4.90;;;18.30;99.90;;;;;;5026998;28;20217;-72
2021/07/18 00:32:26;;;;;;;14.20;5.43;;;18.30;99.90;;;;;;5027678;28;20201;-72
2021/07/18 00:34:52;;;;;;;15.27;4.90;;;18.40;99.90;;;;;;5027161;28;20196;-72
2021/07/18 00:37:17;;;;;;;11.83;5.40;;;18.40;99.90;;;;;;5029348;28;20260;-72
2021/07/18 00:39:43;;;;;;;14.83;6.53;;;18.50;99.90;;;;;;5028161;28;20214;-72
2021/07/18 00:42:09;;;;;;;20.63;7.73;;;18.50;99.90;;;;;;5028209;28;20204;-72
2021/07/18 00:44:35;;;;;;;22.10;8.00;;;18.50;99.90;;;;;;5030225;28;20235;-72
2021/07/18 00:47:00;;;;;;;17.57;7.73;;;18.60;99.90;;;;;;5027763;28;20335;-72
2021/07/18 00:49:26;;;;;;;22.33;7.50;;;18.70;99.90;;;;;;5030918;28;20199;-72
2021/07/18 00:51:52;;;;;;;14.63;6.67;;;18.70;99.90;;;;;;5029370;28;20308;-72
2021/07/18 00:54:18;;;;;;;14.80;6.40;;;18.50;99.90;;;;;;5029202;28;20281;-72
2021/07/18 00:56:44;;;;;;;15.03;6.53;;;18.50;99.90;;;;;;5026795;28;20321;-72
2021/07/18 00:59:10;;;;;;;18.50;5.83;;;18.40;99.90;;;;;;5028183;28;20637;-72
2021/07/18 01:01:36;;;;;;;11.07;5.33;;;18.30;99.90;;;;;;5027848;28;20200;-72
2021/07/18 01:04:02;;;;;;;12.70;5.07;;;18.30;99.90;;;;;;5028107;28;20189;-72
2021/07/18 01:06:28;;;;;;;12.03;5.30;;;18.20;99.90;;;;;;5031123;28;20183;-72
2021/07/18 01:08:53;;;;;;;12.03;5.23;;;18.20;99.90;;;;;;5027185;28;20667;-72
2021/07/18 01:11:20;;;;;;;10.67;5.20;;;18.20;99.90;;;;;;5030810;28;20186;-72
2021/07/18 01:13:45;;;;;;;11.30;4.77;;;18.20;99.90;;;;;;5024788;28;20192;-72
2021/07/18 01:16:11;;;;;;;11.80;4.83;;;18.30;99.90;;;;;;5029373;28;20197;-72
2021/07/18 01:18:40;;;;;;;12.63;5.40;;;18.30;99.90;;;;;;5029341;28;20189;-72
2021/07/18 01:21:07;;;;;;;11.10;4.57;;;18.30;99.90;;;;;;5027564;28;20224;-72
2021/07/18 01:23:35;;;;;;;10.07;5.17;;;18.20;99.90;;;;;;5029307;28;20176;-72
2021/07/18 01:26:01;;;;;;;8.60;4.60;;;18.10;99.90;;;;;;5026605;28;20177;-72
2021/07/18 01:28:27;;;;;;;12.40;5.07;;;18.10;99.90;;;;;;5028468;28;20542;-72
2021/07/18 01:30:53;;;;;;;11.17;4.97;;;17.90;99.90;;;;;;5027017;28;20229;-72
2021/07/18 01:33:18;;;;;;;11.03;5.00;;;17.90;99.90;;;;;;5029314;28;20280;-72
2021/07/18 01:35:44;;;;;;;12.87;5.33;;;17.80;99.90;;;;;;5027220;28;20271;-72
2021/07/18 01:38:12;;;;;;;11.67;5.33;;;17.80;99.90;;;;;;5028222;28;20706;-72
2021/07/18 01:40:38;;;;;;;11.47;4.80;;;17.70;99.90;;;;;;5029152;28;20603;-72
2021/07/18 01:43:05;;;;;;;9.80;5.27;;;17.70;99.90;;;;;;5025159;28;20216;-72
2021/07/18 01:45:30;;;;;;;11.77;5.27;;;17.70;99.90;;;;;;5029318;28;20185;-72
2021/07/18 01:47:56;;;;;;;12.10;4.87;;;17.80;99.90;;;;;;5021365;28;20565;-72
2021/07/18 01:50:22;;;;;;;13.43;5.77;;;17.70;99.90;;;;;;5025811;28;20196;-72
2021/07/18 01:52:48;;;;;;;11.07;4.80;;;17.70;99.90;;;;;;5028041;28;20295;-72
2021/07/18 01:55:18;;;;;;;14.20;4.73;;;17.70;99.90;;;;;;5027182;28;20308;-72
2021/07/18 01:57:44;;;;;;;12.10;4.63;;;17.60;99.90;;;;;;5028166;28;20308;-72
2021/07/18 02:00:12;;;;;;;11.33;5.07;;;17.60;99.90;;;;;;5029986;28;20192;-72
2021/07/18 02:03:03;;;;;;;14.50;5.10;;;17.50;99.90;;;;;;5027060;28;20216;-72
2021/07/18 02:05:29;;;;;;;11.03;5.00;;;17.50;99.90;;;;;;5026690;28;20243;-72
2021/07/18 02:07:55;;;;;;;12.10;5.17;;;17.50;99.90;;;;;;5026672;28;20234;-72
2021/07/18 02:10:21;;;;;;;11.00;4.43;;;17.50;99.90;;;;;;5028331;28;20336;-72
2021/07/18 02:12:49;;;;;;;10.33;4.97;;;17.50;99.90;;;;;;5027146;28;20605;-72
2021/07/18 02:15:20;;;;;;;9.80;5.17;;;17.40;99.90;;;;;;5032943;28;20235;-72
2021/07/18 02:17:46;;;;;;;9.20;4.97;;;17.30;99.90;;;;;;5031392;28;20192;-72
2021/07/18 02:20:15;;;;;;;11.83;5.13;;;17.30;99.90;;;;;;5032196;28;20191;-72
2021/07/18 02:22:44;;;;;;;9.03;4.70;;;17.20;99.90;;;;;;5033953;28;20283;-72
2021/07/18 02:25:11;;;;;;;11.47;4.77;;;17.20;99.90;;;;;;5029427;28;20179;-72
2021/07/18 02:27:37;;;;;;;14.37;5.53;;;17.20;99.90;;;;;;5032397;28;20192;-72
2021/07/18 02:30:17;;;;;;;9.70;4.70;;;17.20;99.90;;;;;;5031432;28;20182;-72
2021/07/18 02:32:43;;;;;;;11.63;5.17;;;17.10;99.90;;;;;;5032305;28;20603;-72
2021/07/18 02:35:12;;;;;;;8.30;4.57;;;17.10;99.90;;;;;;5032455;28;20187;-72
2021/07/18 02:37:38;;;;;;;10.47;4.40;;;17.10;99.90;;;;;;5032508;28;20198;-72
2021/07/18 02:40:05;;;;;;;9.27;4.53;;;17.00;99.90;;;;;;5033248;28;20184;-72
2021/07/18 02:42:31;;;;;;;9.43;4.73;;;17.00;99.90;;;;;;5030374;28;20214;-72
2021/07/18 02:44:57;;;;;;;10.33;4.30;;;17.00;99.90;;;;;;5032580;28;20250;-72
2021/07/18 02:47:23;;;;;;;12.03;5.40;;;17.00;99.90;;;;;;5030317;28;20262;-72
2021/07/18 02:49:48;;;;;;;12.43;4.70;;;17.00;99.90;;;;;;5027483;28;20273;-72
2021/07/18 02:52:15;;;;;;;10.30;4.40;;;17.10;99.90;;;;;;5027308;28;20553;-72
2021/07/18 02:54:41;;;;;;;10.37;4.50;;;17.00;99.90;;;;;;5030988;28;20199;-72
2021/07/18 02:57:07;;;;;;;11.17;4.80;;;17.00;99.90;;;;;;5033176;28;20253;-72
2021/07/18 02:59:33;;;;;;;12.90;4.67;;;17.00;99.90;;;;;;5029544;28;20196;-72
2021/07/18 03:02:00;;;;;;;11.23;4.47;;;16.90;99.90;;;;;;5031984;28;20208;-71
2021/07/18 03:04:29;;;;;;;10.37;4.20;;;16.80;99.90;;;;;;5029300;28;20184;-71
2021/07/18 03:06:56;;;;;;;9.03;4.50;;;16.80;99.90;;;;;;5031957;28;20683;-71
2021/07/18 03:09:23;;;;;;;10.30;4.47;;;16.80;99.90;;;;;;5029874;28;20192;-71
2021/07/18 03:11:51;;;;;;;7.27;4.33;;;16.80;99.90;;;;;;5030611;28;20990;-71
2021/07/18 03:14:18;;;;;;;11.07;4.60;;;16.80;99.90;;;;;;5029076;28;20271;-71
2021/07/18 03:16:44;;;;;;;14.17;4.50;;;16.80;99.90;;;;;;5031734;28;20663;-72
2021/07/18 03:19:11;;;;;;;10.60;4.60;;;16.70;99.90;;;;;;5032556;28;20212;-71
2021/07/18 03:21:36;;;;;;;9.80;4.67;;;16.70;99.90;;;;;;5027545;28;20689;-71
2021/07/18 03:24:03;;;;;;;10.57;4.03;;;16.70;99.90;;;;;;5030144;28;20292;-71
2021/07/18 03:26:29;;;;;;;11.83;4.90;;;16.70;99.90;;;;;;5030015;28;20355;-71
2021/07/18 03:28:54;;;;;;;9.73;4.50;;;16.70;99.90;;;;;;5030540;28;20299;-71
2021/07/18 03:31:20;;;;;;;9.47;4.63;;;16.70;99.90;;;;;;5028283;28;20203;-71
2021/07/18 03:33:46;;;;;;;11.37;4.50;;;16.70;99.90;;;;;;5028747;28;20206;-71
2021/07/18 03:36:12;;;;;;;10.43;4.20;;;16.60;99.90;;;;;;5024724;28;20187;-71
2021/07/18 03:38:37;;;;;;;14.83;4.60;;;16.50;99.90;;;;;;5030670;28;20222;-72
2021/07/18 03:41:03;;;;;;;10.40;4.40;;;16.50;99.90;;;;;;5032486;28;20295;-71
2021/07/18 03:43:29;;;;;;;10.33;4.20;;;16.50;99.90;;;;;;5028552;28;20672;-71
2021/07/18 03:45:54;;;;;;;9.73;4.37;;;16.50;99.90;;;;;;5030242;28;20172;-71
2021/07/18 03:48:20;;;;;;;7.63;3.93;;;16.50;99.90;;;;;;5013003;28;20645;-72
2021/07/18 03:50:47;;;;;;;9.37;4.30;;;16.50;99.90;;;;;;5029620;28;20196;-71
2021/07/18 03:53:13;;;;;;;7.77;4.23;;;16.40;99.90;;;;;;5031285;28;20192;-72
2021/07/18 03:55:39;;;;;;;7.93;4.07;;;16.40;99.90;;;;;;5029983;28;20191;-71
2021/07/18 03:58:04;;;;;;;13.27;4.17;;;16.40;99.90;;;;;;5028839;28;20179;-72
2021/07/18 04:00:30;;;;;;;12.13;4.77;;;16.40;99.90;;;;;;5028138;28;20192;-72
2021/07/18 04:02:56;;;;;;;11.23;4.10;;;16.40;99.90;;;;;;5029654;28;20187;-72
2021/07/18 04:05:22;;;;;;;9.07;3.70;;;16.40;99.90;;;;;;5030692;28;20192;-72
2021/07/18 04:07:47;;;;;;;12.93;3.90;;;16.40;99.90;;;;;;5029316;28;20303;-72
2021/07/18 04:10:13;;;;;;;9.43;4.17;;;16.40;99.90;;;;;;5031727;28;20178;-72
2021/07/18 04:12:39;;;;;;;10.47;4.53;;;16.50;99.90;;;;;;5028127;28;20546;-72
2021/07/18 04:15:06;;;;;;;9.30;4.47;;;16.60;99.90;;;;;;5028963;28;20192;-72
2021/07/18 04:17:32;;;;;;;11.47;4.40;;;16.60;99.90;;;;;;5029041;28;20184;-72
2021/07/18 04:19:58;;;;;;;10.43;4.33;;;16.70;99.90;;;;;;5029506;28;20632;-72
2021/07/18 04:22:24;;;;;;;9.13;4.53;;;16.80;99.90;;;;;;5030454;28;20239;-72
2021/07/18 04:24:50;;;;;;;8.57;4.40;;;16.90;99.90;;;;;;5026981;28;20192;-72
2021/07/18 04:27:15;;;;;;;10.77;4.50;;;16.90;99.90;;;;;;5029819;28;20191;-72
2021/07/18 04:29:41;;;;;;;11.17;4.03;;;16.90;99.90;;;;;;5028929;28;20631;-72
2021/07/18 04:32:08;;;;;;;9.27;4.47;;;16.90;99.90;;;;;;5028932;28;20188;-72
2021/07/18 04:34:33;;;;;;;7.47;3.50;;;17.00;99.90;;;;;;5028574;28;20191;-72
2021/07/18 04:36:59;;;;;;;8.57;4.20;;;17.10;99.90;;;;;;5027990;28;20191;-72
2021/07/18 04:39:26;;;;;;;7.77;4.07;;;17.40;99.90;;;;;;5028786;28;20242;-72
2021/07/18 04:41:51;;;;;;;8.93;3.70;;;18.00;99.90;;;;;;5028197;28;20243;-72
2021/07/18 04:44:17;;;;;;;7.00;3.33;;;19.10;99.90;;;;;;5029173;28;20227;-72
2021/07/18 04:46:43;;;;;;;10.93;3.53;;;20.00;99.90;;;;;;5027858;28;20255;-72
2021/07/18 04:49:08;;;;;;;6.67;2.80;;;20.80;99.90;;;;;;5027698;28;20195;-72
2021/07/18 04:51:35;;;;;;;7.97;3.20;;;21.60;99.90;;;;;;5029505;28;20208;-73
2021/07/18 04:54:01;;;;;;;9.47;3.10;;;22.30;99.90;;;;;;5027350;28;20247;-72
2021/07/18 04:56:26;;;;;;;8.10;2.90;;;22.70;99.90;;;;;;5028409;28;20219;-72
2021/07/18 04:58:52;;;;;;;8.50;2.87;;;23.10;99.90;;;;;;5019791;28;20198;-72
2021/07/18 05:01:18;;;;;;;12.00;3.10;;;23.40;99.90;;;;;;5029613;28;20218;-72
2021/07/18 05:03:44;;;;;;;5.90;2.37;;;23.80;99.90;;;;;;5031217;28;20184;-73
2021/07/18 05:06:10;;;;;;;6.77;2.43;;;24.60;99.90;;;;;;5026422;28;20185;-70
2021/07/18 05:08:35;;;;;;;8.47;2.57;;;25.40;99.90;;;;;;5028798;28;20193;-70
2021/07/18 05:11:02;;;;;;;6.73;2.80;;;26.00;99.90;;;;;;5028329;28;20718;-70
2021/07/18 05:13:28;;;;;;;5.57;2.60;;;26.30;99.90;;;;;;5028468;28;20185;-71
2021/07/18 05:15:54;;;;;;;4.50;2.50;;;26.80;99.90;;;;;;5022634;28;20701;-70
2021/07/18 05:18:19;;;;;;;5.70;2.78;;;27.50;99.90;;;;;;5026122;28;20193;-71
2021/07/18 05:20:45;;;;;;;7.13;3.45;;;28.20;99.90;;;;;;5029827;28;20587;-71
2021/07/18 05:23:12;;;;;;;7.75;3.60;;;28.70;99.90;;;;;;5028468;28;20193;-71
2021/07/18 05:25:38;;;;;;;8.13;3.20;;;29.10;99.90;;;;;;5027945;28;20187;-71
2021/07/18 05:28:08;;;;;;;10.38;4.28;;;29.30;99.90;;;;;;5024345;28;20189;-72
2021/07/18 05:30:34;;;;;;;6.95;3.20;;;29.60;99.90;;;;;;5028069;28;20185;-71
2021/07/18 05:33:00;;;;;;;6.63;3.05;;;29.60;99.90;;;;;;5030490;28;20212;-71
2021/07/18 05:35:25;;;;;;;8.98;3.60;;;29.60;99.90;;;;;;5027427;28;20187;-71
2021/07/18 05:37:51;;;;;;;9.38;4.43;;;29.80;99.90;;;;;;5029925;28;20582;-71
2021/07/18 05:40:17;;;;;;;7.88;4.03;;;30.10;99.90;;;;;;5027846;28;20539;-71
2021/07/18 05:42:44;;;;;;;8.60;4.45;;;30.50;99.90;;;;;;5027702;28;20244;-70
2021/07/18 05:45:11;;;;;;;12.27;5.43;;;30.90;99.90;;;;;;5029404;28;20181;-71
2021/07/18 05:47:38;;;;;;;11.48;5.55;;;31.00;99.90;;;;;;5026648;28;20225;-71
2021/07/18 05:50:06;;;;;;;7.82;4.93;;;31.10;99.90;;;;;;5028000;28;20188;-71
2021/07/18 05:52:32;;;;;;;10.63;5.00;;;31.50;99.90;;;;;;5027006;28;20216;-71
2021/07/18 05:54:58;;;;;;;11.02;5.70;;;31.80;99.90;;;;;;5029621;28;20193;-70
2021/07/18 05:57:24;;;;;;;10.75;5.10;;;32.00;99.90;;;;;;5025591;28;20713;-70
2021/07/18 05:59:50;;;;;;;8.10;4.97;;;31.70;99.90;;;;;;5026893;28;20271;-71
2021/07/18 06:02:16;;;;;;;9.10;4.90;;;31.80;99.90;;;;;;5027062;28;20757;-70
2021/07/18 06:04:42;;;;;;;9.48;5.60;;;31.50;99.90;;;;;;5027176;28;20231;-70
2021/07/18 06:07:08;;;;;;;11.32;5.55;;;31.00;99.90;;;;;;5028476;28;20563;-70
2021/07/18 06:09:34;;;;;;;10.85;5.35;;;31.40;99.90;;;;;;5027631;28;20196;-70
2021/07/18 06:12:00;;;;;;;11.70;5.50;;;31.70;99.90;;;;;;5028531;28;20585;-70
2021/07/18 06:14:26;;;;;;;13.88;5.88;;;32.00;99.90;;;;;;5027048;28;20263;-70
2021/07/18 06:16:51;;;;;;;9.95;4.85;;;32.30;99.90;;;;;;5026963;28;20628;-71
2021/07/18 06:19:17;;;;;;;11.98;5.50;;;32.30;99.90;;;;;;5023861;28;20640;-71
2021/07/18 06:21:43;;;;;;;11.60;4.95;;;32.30;99.90;;;;;;5026581;28;20212;-72
2021/07/18 06:24:09;;;;;;;10.85;5.70;;;32.70;99.60;;;;;;5026446;28;20656;-71
2021/07/18 06:26:35;;;;;;;10.20;5.20;;;32.90;98.90;;;;;;5026450;28;20189;-71
2021/07/18 06:29:01;;;;;;;11.30;5.78;;;33.30;98.10;;;;;;5029305;28;20189;-71
2021/07/18 06:31:27;;;;;;;10.02;5.45;;;33.10;98.70;;;;;;5022451;28;20193;-71
2021/07/18 06:33:53;;;;;;;10.82;5.70;;;32.90;99.40;;;;;;5027044;28;20215;-71
2021/07/18 06:36:18;;;;;;;11.05;5.60;;;32.80;97.80;;;;;;5031841;28;20204;-71
2021/07/18 06:38:44;;;;;;;11.38;5.93;;;32.50;98.00;;;;;;5026217;28;20193;-72
2021/07/18 06:41:10;;;;;;;10.48;5.38;;;32.40;98.70;;;;;;5027599;28;20429;-72
2021/07/18 06:43:36;;;;;;;10.57;5.90;;;32.40;98.40;;;;;;5028639;28;20727;-72
2021/07/18 06:46:02;;;;;;;11.20;5.97;;;31.90;98.00;;;;;;5025430;28;20666;-71
2021/07/18 06:48:27;;;;;;;12.68;6.15;;;31.50;99.70;;;;;;5026775;28;20229;-71
2021/07/18 06:50:53;;;;;;;12.88;5.43;;;31.60;99.90;;;;;;5026168;28;20583;-71
2021/07/18 06:53:19;;;;;;;12.27;5.85;;;32.00;99.50;;;;;;5023677;28;20193;-71
2021/07/18 06:55:45;;;;;;;11.52;6.03;;;32.60;98.60;;;;;;5027883;28;20208;-71
2021/07/18 06:58:11;;;;;;;10.40;5.05;;;32.80;97.50;;;;;;5029579;28;20260;-71
2021/07/18 07:00:36;;;;;;;12.75;5.47;;;33.10;98.00;;;;;;5026986;28;20188;-71
2021/07/18 07:03:03;;;;;;;9.02;5.15;;;32.50;97.80;;;;;;5032548;28;20568;-71
2021/07/18 07:05:28;;;;;;;11.68;5.10;;;32.70;97.50;;;;;;5029623;28;20190;-71
2021/07/18 07:07:54;;;;;;;10.05;5.38;;;33.30;97.10;;;;;;5031084;28;20345;-71
2021/07/18 07:10:20;;;;;;;7.43;4.18;;;33.90;96.90;;;;;;5033309;28;20219;-72
2021/07/18 07:12:47;;;;;;;9.57;4.63;;;34.40;95.20;;;;;;5029033;28;20192;-71
2021/07/18 07:15:13;;;;;;;11.05;4.22;;;35.00;94.30;;;;;;5032094;28;20181;-72
2021/07/18 07:17:42;;;;;;;8.13;3.95;;;34.90;92.90;;;;;;5029422;28;20564;-71
2021/07/18 07:20:09;;;;;;;7.72;3.88;;;34.40;93.40;;;;;;5032616;28;20600;-71
2021/07/18 07:22:35;;;;;;;8.93;3.70;;;34.50;93.40;;;;;;5031302;28;20201;-71
2021/07/18 07:25:13;;;;;;;8.30;3.95;;;34.70;92.30;;;;;;5029102;28;20193;-72
2021/07/18 07:27:39;;;;;;;8.13;3.80;;;34.70;92.40;;;;;;5032317;28;20215;-71
2021/07/18 07:30:09;;;;;;;6.53;3.10;;;35.60;92.00;;;;;;5028830;28;20181;-71
2021/07/18 07:32:36;;;;;;;8.10;3.10;;;36.00;90.50;;;;;;5029352;28;20247;-70
2021/07/18 07:35:04;;;;;;;8.35;3.08;;;35.70;90.00;;;;;;5030096;28;20264;-71
2021/07/18 07:37:30;;;;;;;7.40;3.30;;;35.40;90.10;;;;;;5030921;28;20667;-71
2021/07/18 07:39:56;;;;;;;7.82;3.28;;;35.00;90.30;;;;;;5031597;28;20177;-72
2021/07/18 07:42:22;;;;;;;6.40;2.60;;;35.90;88.60;;;;;;5027531;28;20243;-72
2021/07/18 07:44:52;;;;;;;8.63;2.70;;;36.80;86.90;;;;;;5024998;28;20193;-72
2021/07/18 07:47:18;;;;;;;7.50;2.60;;;36.40;86.20;;;;;;5027825;28;20277;-72
2021/07/18 07:49:45;;;;;;;5.47;2.30;;;37.80;81.60;;;;;;5029924;28;20264;-72
2021/07/18 07:52:12;;;;;;;5.53;2.30;;;38.70;81.00;;;;;;5028931;28;20616;-72
2021/07/18 07:54:38;;;;;;;6.50;2.20;;;38.80;77.50;;;;;;5030060;28;20648;-72
2021/07/18 07:57:05;;;;;;;5.50;2.33;;;38.70;76.80;;;;;;5026451;28;20282;-72
2021/07/18 07:59:31;;;;;;;9.10;2.67;;;38.50;75.40;;;;;;5028948;28;20569;-72
2021/07/18 08:01:58;;;;;;;5.43;2.15;;;38.30;74.60;;;;;;5032395;28;20351;-72
2021/07/18 08:04:24;;;;;;;8.68;2.20;;;39.00;73.10;;;;;;5027311;28;20185;-72
2021/07/18 08:06:50;;;;;;;6.70;2.25;;;38.20;73.00;;;;;;5031016;28;20267;-72
2021/07/18 08:09:16;;;;;;;6.00;2.20;;;38.30;73.60;;;;;;5029150;28;20236;-72
2021/07/18 08:11:42;;;;;;;5.90;2.10;;;38.70;71.10;;;;;;5028499;28;20205;-72
2021/07/18 08:14:08;;;;;;;4.65;2.10;;;39.20;71.20;;;;;;5031985;28;20188;-72
2021/07/18 08:16:34;;;;;;;5.22;2.10;;;40.00;68.80;;;;;;5028971;28;20177;-72
2021/07/18 08:19:00;;;;;;;4.63;1.60;;;41.00;64.10;;;;;;5029191;28;20675;-72
2021/07/18 08:21:26;;;;;;;5.63;1.80;;;40.30;64.70;;;;;;5028040;28;20347;-72
2021/07/18 08:23:52;;;;;;;5.03;1.80;;;41.10;63.60;;;;;;5028504;28;20192;-72
2021/07/18 08:26:17;;;;;;;4.32;1.85;;;40.60;63.70;;;;;;5021692;28;20184;-72
2021/07/18 08:28:43;;;;;;;5.03;1.73;;;41.80;62.20;;;;;;5029089;28;20232;-72
2021/07/18 08:31:10;;;;;;;7.18;1.80;;;41.50;59.90;;;;;;5031495;28;20189;-72
2021/07/18 08:33:35;;;;;;;4.63;1.60;;;41.30;59.30;;;;;;5027816;28;20643;-72
2021/07/18 08:36:01;;;;;;;4.38;1.35;;;40.60;60.70;;;;;;5030906;28;20200;-72
2021/07/18 08:38:27;;;;;;;2.60;1.20;;;40.70;61.30;;;;;;5029788;28;20207;-72
2021/07/18 08:40:55;;;;;;;4.40;1.52;;;41.30;59.80;;;;;;5027934;28;20193;-72
2021/07/18 08:43:22;;;;;;;4.78;1.10;;;42.20;58.40;;;;;;5029111;28;20267;-73
2021/07/18 08:45:48;;;;;;;6.30;1.70;;;42.40;56.10;;;;;;5027328;28;20260;-72
2021/07/18 08:48:14;;;;;;;3.40;1.27;;;42.50;57.70;;;;;;5029346;28;20223;-73
2021/07/18 08:50:40;;;;;;;5.43;1.40;;;43.20;55.60;;;;;;5028283;28;20267;-71
2021/07/18 08:53:06;;;;;;;4.93;1.38;;;43.90;54.30;;;;;;5029360;28;20204;-72
2021/07/18 08:55:32;;;;;;;2.78;1.25;;;43.40;53.60;;;;;;5020425;28;20760;-72
2021/07/18 08:57:58;;;;;;;3.45;1.35;;;42.60;53.70;;;;;;5027307;28;20234;-72
2021/07/18 09:00:24;;;;;;;4.13;1.50;;;41.80;55.50;;;;;;5029787;28;20264;-72
2021/07/18 09:02:50;;;;;;;4.97;1.23;;;41.60;54.70;;;;;;5027582;28;20354;-72
2021/07/18 09:05:16;;;;;;;4.63;1.30;;;41.20;55.10;;;;;;5029986;28;20188;-73
2021/07/18 09:07:50;;;;;;;3.70;1.35;;;40.50;54.80;;;;;;5029204;28;20169;-73
2021/07/18 09:10:27;;;;;;;2.60;1.27;;;40.20;55.90;;;;;;5028361;28;20191;-73
2021/07/18 09:13:11;;;;;;;2.70;1.10;;;39.10;56.40;;;;;;5033419;28;20180;-72
2021/07/18 09:15:52;;;;;;;3.85;1.48;;;39.30;56.30;;;;;;5024643;28;20327;-72
2021/07/18 09:18:24;;;;;;;3.17;1.52;;;40.00;58.50;;;;;;5028867;28;20212;-72
2021/07/18 09:20:55;;;;;;;4.85;1.58;;;40.80;56.10;;;;;;5027698;28;20288;-72
2021/07/18 09:23:29;;;;;;;4.40;1.33;;;41.50;55.80;;;;;;5028250;28;20185;-72
2021/07/18 09:26:20;;;;;;;4.85;1.35;;;42.10;53.60;;;;;;5026431;28;20805;-71
2021/07/18 09:28:47;;;;;;;2.25;1.20;;;41.90;54.60;;;;;;5028010;28;20651;-72
2021/07/18 09:31:34;;;;;;;2.05;1.13;;;42.30;52.60;;;;;;5029259;28;20181;-72
2021/07/18 09:34:21;;;;;;;2.60;1.30;;;41.60;53.00;;;;;;5026097;28;20615;-71
2021/07/18 09:36:47;;;;;;;3.97;1.52;;;41.60;55.50;;;;;;5026131;28;20536;-72
2021/07/18 09:39:14;;;;;;;2.97;1.42;;;42.20;51.90;;;;;;5028778;28;20279;-72
2021/07/18 09:41:44;;;;;;;3.47;1.40;;;42.30;51.70;;;;;;5029471;28;21709;-72
2021/07/18 09:44:09;;;;;;;4.13;1.48;;;42.90;52.10;;;;;;5027609;28;20193;-73
2021/07/18 09:46:36;;;;;;;4.10;1.60;;;42.60;51.40;;;;;;5028329;28;20221;-73
2021/07/18 09:49:04;;;;;;;2.63;1.30;;;42.00;51.20;;;;;;5026218;28;20208;-72
2021/07/18 09:51:31;;;;;;;4.13;1.70;;;42.30;51.80;;;;;;5027657;28;20240;-73
2021/07/18 09:54:11;;;;;;;3.45;1.58;;;42.80;51.50;;;;;;5028183;28;20280;-72
2021/07/18 09:56:38;;;;;;;4.05;1.80;;;42.20;51.30;;;;;;5026974;28;20203;-73
2021/07/18 09:59:05;;;;;;;3.88;1.63;;;41.90;51.40;;;;;;5029804;28;20192;-73
2021/07/18 10:01:32;;;;;;;4.72;1.70;;;40.60;53.10;;;;;;5027458;28;20197;-72
2021/07/18 10:03:58;;;;;;;2.58;1.40;;;41.40;53.70;;;;;;5028657;28;20177;-73
2021/07/18 10:06:25;;;;;;;3.83;1.48;;;41.80;53.40;;;;;;5027587;28;20181;-71
2021/07/18 10:09:09;;;;;;;3.63;1.33;;;42.20;51.40;;;;;;5027389;28;20667;-73
2021/07/18 10:11:35;;;;;;;2.63;1.30;;;42.10;53.60;;;;;;5025479;28;20193;-71
2021/07/18 10:14:01;;;;;;;6.13;1.80;;;42.40;52.70;;;;;;5026989;28;20181;-73
2021/07/18 10:16:29;;;;;;;2.47;1.30;;;42.30;54.20;;;;;;5029281;28;20184;-73
2021/07/18 10:18:56;;;;;;;3.95;1.30;;;42.00;54.00;;;;;;5026013;28;20276;-73
2021/07/18 10:21:25;;;;;;;3.15;1.55;;;42.80;52.80;;;;;;5024307;28;20244;-72
2021/07/18 10:23:54;;;;;;;2.50;1.20;;;42.50;51.60;;;;;;5025840;28;20185;-73
2021/07/18 10:26:24;;;;;;;3.78;1.83;;;42.40;52.60;;;;;;5028663;28;20193;-72
2021/07/18 10:28:51;;;;;;;3.70;1.55;;;42.00;52.10;;;;;;5026149;28;20692;-73
2021/07/18 10:31:30;;;;;;;3.40;1.83;;;42.00;53.80;;;;;;5029130;28;20177;-72
2021/07/18 10:33:56;;;;;;;4.30;1.50;;;41.30;54.40;;;;;;5028511;28;20177;-72
2021/07/18 10:36:25;;;;;;;2.03;1.40;;;41.80;53.80;;;;;;5029183;28;20193;-73
2021/07/18 10:38:51;;;;;;;3.40;1.77;;;42.90;52.30;;;;;;5032484;28;20180;-73
2021/07/18 10:41:46;;;;;;;2.78;1.60;;;42.20;53.90;;;;;;5031111;28;20608;-72
2021/07/18 10:44:13;;;;;;;4.72;1.80;;;42.00;54.40;;;;;;5032820;28;20308;-71
2021/07/18 10:46:42;;;;;;;3.30;1.83;;;41.40;53.90;;;;;;5029603;28;20786;-72
2021/07/18 10:49:15;;;;;;;5.82;1.73;;;41.00;55.90;;;;;;5030471;28;20189;-73
2021/07/18 10:51:53;;;;;;;5.43;1.83;;;41.30;55.00;;;;;;5031119;28;20216;-72
2021/07/18 10:54:25;;;;;;;3.85;2.08;;;41.60;54.90;;;;;;5030724;28;20197;-72
2021/07/18 10:56:53;;;;;;;5.25;2.20;;;41.30;54.30;;;;;;5027087;28;20189;-72
2021/07/18 10:59:39;;;;;;;3.65;2.08;;;40.90;55.10;;;;;;5030981;28;20530;-73
2021/07/18 11:02:13;;;;;;;4.35;2.13;;;41.80;53.80;;;;;;5032064;28;20197;-73
2021/07/18 11:04:44;;;;;;;5.63;2.80;;;42.40;52.50;;;;;;5029344;28;20193;-72
2021/07/18 11:07:22;;;;;;;3.92;2.35;;;40.70;53.80;;;;;;5024277;28;20196;-72
2021/07/18 11:10:11;;;;;;;6.72;2.83;;;40.20;57.90;;;;;;5030152;28;20188;-72
2021/07/18 11:12:58;;;;;;;5.63;2.55;;;41.00;55.60;;;;;;5028751;28;20189;-72
2021/07/18 11:15:30;;;;;;;6.10;2.63;;;41.30;55.60;;;;;;5029854;28;20204;-72
2021/07/18 11:18:00;;;;;;;6.85;3.20;;;41.50;54.60;;;;;;5032060;28;20655;-72
2021/07/18 11:20:44;;;;;;;5.60;2.35;;;39.90;56.60;;;;;;5031470;28;20724;-71
2021/07/18 11:23:11;;;;;;;6.80;3.95;;;40.90;57.30;;;;;;5030400;28;20219;-72
2021/07/18 11:25:42;;;;;;;6.82;2.90;;;39.40;57.70;;;;;;5025843;28;20281;-71
2021/07/18 11:28:33;;;;;;;5.13;2.70;;;39.10;58.80;;;;;;5030588;28;20190;-71
2021/07/18 11:31:12;;;;;;;6.57;3.70;;;40.30;56.10;;;;;;5002612;28;21063;-71
2021/07/18 11:34:04;;;;;;;8.82;3.45;;;40.10;57.70;;;;;;5028710;28;20181;-72
2021/07/18 11:36:33;;;;;;;7.03;3.25;;;40.30;57.50;;;;;;5023174;28;20181;-71
2021/07/18 11:39:00;;;;;;;7.47;3.08;;;40.80;56.00;;;;;;5029672;28;20189;-72
2021/07/18 11:41:30;;;;;;;5.65;3.65;;;40.70;57.90;;;;;;5025302;28;20197;-71
2021/07/18 11:44:00;;;;;;;7.07;3.75;;;40.20;56.80;;;;;;5031650;28;20185;-72
2021/07/18 11:46:30;;;;;;;7.13;3.42;;;41.10;55.80;;;;;;5031124;28;20225;-72
2021/07/18 11:48:58;;;;;;;8.68;3.60;;;40.30;55.80;;;;;;5026024;28;20230;-72
2021/07/18 11:51:24;;;;;;;9.73;3.65;;;39.70;57.80;;;;;;5027874;28;20220;-72
2021/07/18 11:53:52;;;;;;;6.90;4.05;;;38.90;59.00;;;;;;5029130;28;20224;-72
2021/07/18 11:56:29;;;;;;;7.72;3.42;;;37.30;61.00;;;;;;5030938;28;20741;-72
2021/07/18 11:59:03;;;;;;;5.78;2.83;;;37.70;59.90;;;;;;5031378;28;20173;-70
2021/07/18 12:01:32;;;;;;;8.45;3.28;;;36.80;62.00;;;;;;5028105;28;20224;-73
2021/07/18 12:03:58;;;;;;;7.43;2.97;;;36.70;63.50;;;;;;5032063;28;20551;-72
2021/07/18 12:06:30;;;;;;;6.13;2.70;;;36.80;61.10;;;;;;5030507;28;20679;-72
2021/07/18 12:08:57;;;;;;;6.85;3.00;;;37.80;62.40;;;;;;5031520;28;20533;-71
2021/07/18 12:11:29;;;;;;;7.25;2.70;;;37.90;62.50;;;;;;5031255;28;20555;-71
2021/07/18 12:13:57;;;;;;;6.07;2.90;;;37.80;61.90;;;;;;5031427;28;20200;-71
2021/07/18 12:16:25;;;;;;;5.68;3.03;;;37.50;60.50;;;;;;5032550;28;20260;-71
2021/07/18 12:18:53;;;;;;;7.10;2.78;;;36.70;63.40;;;;;;5027278;28;20197;-71
2021/07/18 12:21:20;;;;;;;7.57;2.75;;;35.50;66.00;;;;;;5030194;28;20637;-71
2021/07/18 12:24:17;;;;;;;9.15;2.95;;;34.50;68.50;;;;;;5029289;28;20584;-71
2021/07/18 12:26:52;;;;;;;9.45;2.92;;;33.50;68.60;;;;;;5029816;28;20185;-72
2021/07/18 12:29:18;;;;;;;6.75;2.67;;;32.80;71.60;;;;;;5029457;28;20192;-71
2021/07/18 12:31:45;;;;;;;6.40;2.90;;;32.40;73.00;;;;;;5029586;28;20200;-72
2021/07/18 12:34:13;;;;;;;5.43;2.92;;;32.40;76.30;;;;;;5031154;28;20263;-72
2021/07/18 12:37:12;;;;;;;7.65;2.83;;;32.30;73.80;;;;;;5030267;28;20212;-72
2021/07/18 12:39:59;;;;;;;7.07;2.97;;;32.30;75.60;;;;;;5031495;28;20250;-72
2021/07/18 12:42:38;;;;;;;7.03;2.55;;;32.00;76.60;;;;;;5027547;28;20216;-72
2021/07/18 12:45:16;;;;;;;9.73;2.97;;;31.80;78.50;;;;;;5028651;28;20187;-72
2021/07/18 12:47:44;;;;;;;7.20;3.22;;;31.60;76.50;;;;;;5029046;28;20208;-72